sensor_id;sensor_type;location;lat;lon;timestamp;pressure;altitude;pressure_sealevel;temperature;humidity
13553;BME280;6847;48.830;9.116;2022-10-22T00:00:43;97670.19;;;16.51;74.21
13553;BME280;6847;48.830;9.116;2022-10-22T00:03:10;97676.47;;;16.43;74.51
13553;BME280;6847;48.830;9.116;2022-10-22T00:05:36;97671.81;;;16.35;74.62
13553;BME280;6847;48.830;9.116;2022-10-22T00:08:05;97667.09;;;16.27;74.64
13553;BME280;6847;48.830;9.116;2022-10-22T00:10:36;97658.91;;;16.18;74.74
13553;BME280;6847;48.830;9.116;2022-10-22T00:13:07;97640.75;;;16.05;74.89
13553;BME280;6847;48.830;9.116;2022-10-22T00:15:35;97653.44;;;16.10;75.32
13553;BME280;6847;48.830;9.116;2022-10-22T00:18:04;97664.66;;;16.08;74.96
13553;BME280;6847;48.830;9.116;2022-10-22T00:20:35;97653.44;;;16.10;75.32
13553;BME280;6847;48.830;9.116;2022-10-22T00:23:04;97661.50;;;16.15;75.29
13553;BME280;6847;48.830;9.116;2022-10-22T00:25:32;97660.03;;;16.17;75.06
13553;BME280;6847;48.830;9.116;2022-10-22T00:28:04;97660.19;;;16.21;75.48
13553;BME280;6847;48.830;9.116;2022-10-22T00:30:31;97668.88;;;16.23;75.45
13553;BME280;6847;48.830;9.116;2022-10-22T00:32:59;97672.91;;;16.25;75.26
13553;BME280;6847;48.830;9.116;2022-10-22T00:35:29;97692.19;;;16.29;75.02
13553;BME280;6847;48.830;9.116;2022-10-22T00:37:56;97688.81;;;16.32;75.33
13553;BME280;6847;48.830;9.116;2022-10-22T00:40:22;97688.81;;;16.32;75.10
13553;BME280;6847;48.830;9.116;2022-10-22T00:42:49;97691.25;;;16.34;75.15
13553;BME280;6847;48.830;9.116;2022-10-22T00:45:22;97679.50;;;16.33;74.97
13553;BME280;6847;48.830;9.116;2022-10-22T00:48:07;97681.94;;;16.35;75.43
13553;BME280;6847;48.830;9.116;2022-10-22T00:50:38;97669.38;;;16.34;75.94
13553;BME280;6847;48.830;9.116;2022-10-22T00:53:07;97672.94;;;16.34;76.03
13553;BME280;6847;48.830;9.116;2022-10-22T00:55:36;97669.53;;;16.37;76.16
13553;BME280;6847;48.830;9.116;2022-10-22T00:58:07;97655.56;;;16.39;76.44
13553;BME280;6847;48.830;9.116;2022-10-22T01:00:36;97653.13;;;16.37;76.27
13553;BME280;6847;48.830;9.116;2022-10-22T01:03:04;97657.97;;;16.40;76.44
13553;BME280;6847;48.830;9.116;2022-10-22T01:05:38;97665.03;;;16.41;76.76
13553;BME280;6847;48.830;9.116;2022-10-22T01:08:10;97657.66;;;16.42;76.47
13553;BME280;6847;48.830;9.116;2022-10-22T01:10:52;97647.84;;;16.41;76.62
13553;BME280;6847;48.830;9.116;2022-10-22T01:13:31;97624.69;;;16.38;76.84
13553;BME280;6847;48.830;9.116;2022-10-22T01:16:09;97628.88;;;16.36;76.91
13553;BME280;6847;48.830;9.116;2022-10-22T01:18:43;97621.00;;;16.34;77.02
13553;BME280;6847;48.830;9.116;2022-10-22T01:21:23;97598.66;;;16.32;77.00
13553;BME280;6847;48.830;9.116;2022-10-22T01:24:11;97582.28;;;16.32;77.08
13553;BME280;6847;48.830;9.116;2022-10-22T01:26:56;97599.16;;;16.34;76.94
13553;BME280;6847;48.830;9.116;2022-10-22T01:29:31;97619.53;;;16.37;76.70
13553;BME280;6847;48.830;9.116;2022-10-22T01:32:01;97606.88;;;16.41;76.74
13553;BME280;6847;48.830;9.116;2022-10-22T01:34:31;97612.97;;;16.46;76.56
13553;BME280;6847;48.830;9.116;2022-10-22T01:37:00;97643.19;;;16.50;76.58
13553;BME280;6847;48.830;9.116;2022-10-22T01:39:29;97655.41;;;16.52;76.61
13553;BME280;6847;48.830;9.116;2022-10-22T01:41:58;97540.47;;;15.80;76.30
13553;BME280;6847;48.830;9.116;2022-10-22T01:44:29;97631.63;;;16.44;76.17
13553;BME280;6847;48.830;9.116;2022-10-22T01:47:06;97655.13;;;16.62;76.15
13553;BME280;6847;48.830;9.116;2022-10-22T01:49:53;97659.28;;;16.69;76.45
13553;BME280;6847;48.830;9.116;2022-10-22T01:52:35;97656.25;;;16.70;75.98
13553;BME280;6847;48.830;9.116;2022-10-22T01:55:10;97622.44;;;16.49;75.99
13553;BME280;6847;48.830;9.116;2022-10-22T01:57:45;97672.13;;;16.85;75.83
13553;BME280;6847;48.830;9.116;2022-10-22T02:00:20;97664.59;;;16.91;76.06
13553;BME280;6847;48.830;9.116;2022-10-22T02:02:52;97604.31;;;16.44;75.91
13553;BME280;6847;48.830;9.116;2022-10-22T02:05:24;97682.44;;;16.97;75.74
13553;BME280;6847;48.830;9.116;2022-10-22T02:07:57;97684.03;;;16.98;75.70
13553;BME280;6847;48.830;9.116;2022-10-22T02:10:29;97691.59;;;17.01;75.30
13553;BME280;6847;48.830;9.116;2022-10-22T02:12:57;97680.19;;;16.99;75.41
13553;BME280;6847;48.830;9.116;2022-10-22T02:15:29;97681.78;;;17.00;75.70
13553;BME280;6847;48.830;9.116;2022-10-22T02:17:59;97678.41;;;17.03;75.46
13553;BME280;6847;48.830;9.116;2022-10-22T02:20:29;97666.31;;;17.04;75.63
13553;BME280;6847;48.830;9.116;2022-10-22T02:22:57;97649.59;;;16.97;75.08
13553;BME280;6847;48.830;9.116;2022-10-22T02:25:29;97667.28;;;17.08;75.27
13553;BME280;6847;48.830;9.116;2022-10-22T02:28:03;97674.38;;;17.09;75.40
13553;BME280;6847;48.830;9.116;2022-10-22T02:30:37;97636.75;;;16.89;75.41
13553;BME280;6847;48.830;9.116;2022-10-22T02:33:08;97677.72;;;17.15;75.29
13553;BME280;6847;48.830;9.116;2022-10-22T02:35:39;97680.13;;;17.16;74.79
13553;BME280;6847;48.830;9.116;2022-10-22T02:38:07;97682.88;;;17.16;74.60
13553;BME280;6847;48.830;9.116;2022-10-22T02:40:38;97652.34;;;16.97;74.83
13553;BME280;6847;48.830;9.116;2022-10-22T02:43:06;97675.47;;;17.17;75.01
13553;BME280;6847;48.830;9.116;2022-10-22T02:45:33;97665.97;;;17.14;74.84
13553;BME280;6847;48.830;9.116;2022-10-22T02:48:01;97667.59;;;17.15;74.48
13553;BME280;6847;48.830;9.116;2022-10-22T02:50:31;97670.81;;;17.17;74.46
13553;BME280;6847;48.830;9.116;2022-10-22T02:52:59;97661.47;;;17.18;74.26
13553;BME280;6847;48.830;9.116;2022-10-22T02:55:25;97659.72;;;17.22;74.21
13553;BME280;6847;48.830;9.116;2022-10-22T02:57:55;97667.91;;;17.22;74.30
13553;BME280;6847;48.830;9.116;2022-10-22T03:00:22;97663.56;;;17.21;74.03
13553;BME280;6847;48.830;9.116;2022-10-22T03:02:51;97657.78;;;17.23;74.32
13553;BME280;6847;48.830;9.116;2022-10-22T03:05:23;97658.59;;;17.23;74.24
13553;BME280;6847;48.830;9.116;2022-10-22T03:07:50;97658.59;;;17.23;73.97
13553;BME280;6847;48.830;9.116;2022-10-22T03:10:17;97660.16;;;17.24;74.13
13553;BME280;6847;48.830;9.116;2022-10-22T03:12:46;97653.09;;;17.23;73.92
13553;BME280;6847;48.830;9.116;2022-10-22T03:15:14;97654.69;;;17.24;73.84
13553;BME280;6847;48.830;9.116;2022-10-22T03:17:41;97657.09;;;17.26;74.03
13553;BME280;6847;48.830;9.116;2022-10-22T03:20:09;97646.97;;;17.26;73.77
13553;BME280;6847;48.830;9.116;2022-10-22T03:22:39;97643.09;;;17.27;74.23
13553;BME280;6847;48.830;9.116;2022-10-22T03:25:10;97650.19;;;17.28;73.90
13553;BME280;6847;48.830;9.116;2022-10-22T03:27:41;97649.22;;;17.24;74.17
13553;BME280;6847;48.830;9.116;2022-10-22T03:30:11;97648.56;;;17.27;73.97
13553;BME280;6847;48.830;9.116;2022-10-22T03:32:38;97645.50;;;17.29;73.97
13553;BME280;6847;48.830;9.116;2022-10-22T03:35:08;97638.72;;;17.35;74.23
13553;BME280;6847;48.830;9.116;2022-10-22T03:37:35;97651.44;;;17.39;73.82
13553;BME280;6847;48.830;9.116;2022-10-22T03:40:11;97635.19;;;17.34;73.87
13553;BME280;6847;48.830;9.116;2022-10-22T03:42:38;97591.50;;;17.09;73.66
13553;BME280;6847;48.830;9.116;2022-10-22T03:45:10;97638.25;;;17.42;73.90
13553;BME280;6847;48.830;9.116;2022-10-22T03:47:38;97632.09;;;17.45;73.74
13553;BME280;6847;48.830;9.116;2022-10-22T03:50:06;97643.53;;;17.47;73.71
13553;BME280;6847;48.830;9.116;2022-10-22T03:52:35;97530.50;;;16.70;73.74
13553;BME280;6847;48.830;9.116;2022-10-22T03:55:03;97668.78;;;17.44;73.39
13553;BME280;6847;48.830;9.116;2022-10-22T03:57:35;97665.44;;;17.38;73.57
13553;BME280;6847;48.830;9.116;2022-10-22T04:00:03;97655.47;;;17.33;73.94
13553;BME280;6847;48.830;9.116;2022-10-22T04:02:32;97660.47;;;17.31;73.87
13553;BME280;6847;48.830;9.116;2022-10-22T04:04:59;97650.00;;;17.33;73.87
13553;BME280;6847;48.830;9.116;2022-10-22T04:07:29;97658.38;;;17.37;73.69
13553;BME280;6847;48.830;9.116;2022-10-22T04:09:56;97681.53;;;17.39;73.55
13553;BME280;6847;48.830;9.116;2022-10-22T04:12:28;97699.09;;;17.38;73.32
13553;BME280;6847;48.830;9.116;2022-10-22T04:14:56;97677.72;;;17.32;73.86
13553;BME280;6847;48.830;9.116;2022-10-22T04:17:25;97679.16;;;17.29;73.92
13553;BME280;6847;48.830;9.116;2022-10-22T04:19:52;97687.53;;;17.24;73.70
13553;BME280;6847;48.830;9.116;2022-10-22T04:22:19;97678.38;;;17.20;73.75
13553;BME280;6847;48.830;9.116;2022-10-22T04:24:46;97676.44;;;17.21;73.53
13553;BME280;6847;48.830;9.116;2022-10-22T04:27:13;97691.25;;;17.20;73.66
13553;BME280;6847;48.830;9.116;2022-10-22T04:29:43;97677.88;;;17.18;73.60
13553;BME280;6847;48.830;9.116;2022-10-22T04:32:11;97672.91;;;17.20;73.69
13553;BME280;6847;48.830;9.116;2022-10-22T04:34:41;97670.97;;;17.21;73.78
13553;BME280;6847;48.830;9.116;2022-10-22T04:37:08;97669.38;;;17.20;73.42
13553;BME280;6847;48.830;9.116;2022-10-22T04:39:38;97672.91;;;17.20;73.23
13553;BME280;6847;48.830;9.116;2022-10-22T04:42:07;97677.25;;;17.21;73.21
13553;BME280;6847;48.830;9.116;2022-10-22T04:44:36;97650.88;;;17.08;73.20
13553;BME280;6847;48.830;9.116;2022-10-22T04:47:03;97685.94;;;17.23;73.00
13553;BME280;6847;48.830;9.116;2022-10-22T04:49:35;97683.53;;;17.22;72.93
13553;BME280;6847;48.830;9.116;2022-10-22T04:52:14;97680.78;;;17.22;72.86
13553;BME280;6847;48.830;9.116;2022-10-22T04:54:44;97688.19;;;17.21;73.25
13553;BME280;6847;48.830;9.116;2022-10-22T04:57:17;97687.72;;;17.19;73.26
13553;BME280;6847;48.830;9.116;2022-10-22T04:59:44;97698.16;;;17.17;73.34
13553;BME280;6847;48.830;9.116;2022-10-22T05:02:11;97698.81;;;17.14;73.12
13553;BME280;6847;48.830;9.116;2022-10-22T05:04:42;97698.03;;;17.14;72.91
13553;BME280;6847;48.830;9.116;2022-10-22T05:07:12;97700.41;;;17.15;73.13
13553;BME280;6847;48.830;9.116;2022-10-22T05:09:43;97710.22;;;17.16;72.79
13553;BME280;6847;48.830;9.116;2022-10-22T05:12:10;97710.91;;;17.13;73.01
13553;BME280;6847;48.830;9.116;2022-10-22T05:14:37;97717.50;;;17.12;73.11
13553;BME280;6847;48.830;9.116;2022-10-22T05:17:11;97712.66;;;17.09;72.81
13553;BME280;6847;48.830;9.116;2022-10-22T05:19:40;97727.94;;;17.10;72.82
13553;BME280;6847;48.830;9.116;2022-10-22T05:22:07;97726.66;;;17.08;72.97
13553;BME280;6847;48.830;9.116;2022-10-22T05:24:36;97721.03;;;17.04;72.76
13553;BME280;6847;48.830;9.116;2022-10-22T05:27:03;97732.63;;;17.01;73.03
13553;BME280;6847;48.830;9.116;2022-10-22T05:29:30;97733.44;;;17.01;72.92
13553;BME280;6847;48.830;9.116;2022-10-22T05:31:58;97713.31;;;16.89;72.63
13553;BME280;6847;48.830;9.116;2022-10-22T05:34:28;97743.38;;;17.06;72.60
13553;BME280;6847;48.830;9.116;2022-10-22T05:36:56;97745.00;;;17.07;72.64
13553;BME280;6847;48.830;9.116;2022-10-22T05:39:24;97757.56;;;17.08;72.30
13553;BME280;6847;48.830;9.116;2022-10-22T05:41:51;97762.69;;;17.10;72.30
13553;BME280;6847;48.830;9.116;2022-10-22T05:44:23;97762.38;;;17.11;72.24
13553;BME280;6847;48.830;9.116;2022-10-22T05:46:51;97770.59;;;17.11;72.25
13553;BME280;6847;48.830;9.116;2022-10-22T05:49:18;97705.75;;;16.69;72.37
13553;BME280;6847;48.830;9.116;2022-10-22T05:51:45;97782.50;;;17.07;72.33
13553;BME280;6847;48.830;9.116;2022-10-22T05:54:16;97792.13;;;17.04;72.30
13553;BME280;6847;48.830;9.116;2022-10-22T05:56:46;97787.81;;;17.03;72.66
13553;BME280;6847;48.830;9.116;2022-10-22T05:59:15;97723.06;;;16.55;72.37
13553;BME280;6847;48.830;9.116;2022-10-22T06:01:43;97808.53;;;17.04;72.64
13553;BME280;6847;48.830;9.116;2022-10-22T06:04:12;97799.22;;;17.05;72.45
13553;BME280;6847;48.830;9.116;2022-10-22T06:06:44;97798.75;;;17.03;72.51
13553;BME280;6847;48.830;9.116;2022-10-22T06:09:16;97772.50;;;16.85;72.51
13553;BME280;6847;48.830;9.116;2022-10-22T06:11:46;97748.66;;;16.59;72.14
13553;BME280;6847;48.830;9.116;2022-10-22T06:14:16;97808.88;;;16.94;72.55
13553;BME280;6847;48.830;9.116;2022-10-22T06:16:42;97816.28;;;17.02;72.66
13553;BME280;6847;48.830;9.116;2022-10-22T06:19:10;97808.09;;;16.93;72.54
13553;BME280;6847;48.830;9.116;2022-10-22T06:21:38;97807.09;;;16.98;72.37
13553;BME280;6847;48.830;9.116;2022-10-22T06:24:05;97823.50;;;17.07;72.39
13553;BME280;6847;48.830;9.116;2022-10-22T06:26:34;97790.38;;;16.91;72.41
13553;BME280;6847;48.830;9.116;2022-10-22T06:29:01;97825.63;;;17.10;72.29
13553;BME280;6847;48.830;9.116;2022-10-22T06:31:31;97834.63;;;17.10;72.36
13553;BME280;6847;48.830;9.116;2022-10-22T06:34:01;97843.34;;;17.12;72.35
13553;BME280;6847;48.830;9.116;2022-10-22T06:36:31;97850.41;;;17.13;71.86
13553;BME280;6847;48.830;9.116;2022-10-22T06:38:57;97848.81;;;17.12;71.89
13553;BME280;6847;48.830;9.116;2022-10-22T06:41:25;97857.97;;;17.16;72.03
13553;BME280;6847;48.830;9.116;2022-10-22T06:43:55;97856.22;;;17.20;71.74
13553;BME280;6847;48.830;9.116;2022-10-22T06:46:23;97855.56;;;17.23;72.08
13553;BME280;6847;48.830;9.116;2022-10-22T06:48:51;97858.94;;;17.29;71.60
13553;BME280;6847;48.830;9.116;2022-10-22T06:51:19;97858.44;;;17.35;71.82
13553;BME280;6847;48.830;9.116;2022-10-22T06:53:46;97833.69;;;17.23;71.35
13553;BME280;6847;48.830;9.116;2022-10-22T06:56:17;97869.88;;;17.46;71.50
13553;BME280;6847;48.830;9.116;2022-10-22T06:58:47;97871.66;;;17.51;71.52
13553;BME280;6847;48.830;9.116;2022-10-22T07:01:17;97883.56;;;17.55;71.29
13553;BME280;6847;48.830;9.116;2022-10-22T07:03:44;97890.81;;;17.59;71.13
13553;BME280;6847;48.830;9.116;2022-10-22T07:06:12;97894.53;;;17.63;71.07
13553;BME280;6847;48.830;9.116;2022-10-22T07:08:53;97899.88;;;17.68;71.06
13553;BME280;6847;48.830;9.116;2022-10-22T07:11:22;97897.63;;;17.70;71.13
13553;BME280;6847;48.830;9.116;2022-10-22T07:13:52;97899.38;;;17.75;71.67
13553;BME280;6847;48.830;9.116;2022-10-22T07:16:22;97899.03;;;17.85;71.04
13553;BME280;6847;48.830;9.116;2022-10-22T07:18:52;97903.25;;;17.91;71.21
13553;BME280;6847;48.830;9.116;2022-10-22T07:21:20;97905.78;;;17.96;71.05
13553;BME280;6847;48.830;9.116;2022-10-22T07:23:53;97906.44;;;18.02;71.09
13553;BME280;6847;48.830;9.116;2022-10-22T07:26:27;97919.28;;;18.19;70.82
13553;BME280;6847;48.830;9.116;2022-10-22T07:28:57;97920.69;;;18.33;70.92
13553;BME280;6847;48.830;9.116;2022-10-22T07:31:27;97925.50;;;18.45;70.84
13553;BME280;6847;48.830;9.116;2022-10-22T07:33:54;97923.41;;;18.59;70.51
13553;BME280;6847;48.830;9.116;2022-10-22T07:36:20;97925.44;;;18.71;70.31
13553;BME280;6847;48.830;9.116;2022-10-22T07:38:53;97934.56;;;18.83;70.44
13553;BME280;6847;48.830;9.116;2022-10-22T07:41:21;97930.22;;;19.12;69.95
13553;BME280;6847;48.830;9.116;2022-10-22T07:43:50;97908.28;;;19.12;69.72
13553;BME280;6847;48.830;9.116;2022-10-22T07:46:17;97945.84;;;19.49;69.59
13553;BME280;6847;48.830;9.116;2022-10-22T07:48:48;97939.22;;;19.71;69.31
13553;BME280;6847;48.830;9.116;2022-10-22T07:51:16;97936.88;;;19.82;69.17
13553;BME280;6847;48.830;9.116;2022-10-22T07:53:45;97940.16;;;19.96;69.17
13553;BME280;6847;48.830;9.116;2022-10-22T07:56:15;97945.78;;;20.32;68.66
13553;BME280;6847;48.830;9.116;2022-10-22T07:58:42;97943.34;;;20.64;68.34
13553;BME280;6847;48.830;9.116;2022-10-22T08:01:09;97943.81;;;20.78;68.16
13553;BME280;6847;48.830;9.116;2022-10-22T08:03:36;97949.00;;;21.04;68.15
13553;BME280;6847;48.830;9.116;2022-10-22T08:06:05;97961.25;;;22.35;65.62
13553;BME280;6847;48.830;9.116;2022-10-22T08:08:33;97952.00;;;23.69;62.80
13553;BME280;6847;48.830;9.116;2022-10-22T08:11:00;97964.13;;;25.29;60.20
13553;BME280;6847;48.830;9.116;2022-10-22T08:13:27;97943.72;;;25.97;59.10
13553;BME280;6847;48.830;9.116;2022-10-22T08:15:57;97972.09;;;26.13;59.99
13553;BME280;6847;48.830;9.116;2022-10-22T08:18:34;97969.91;;;26.63;59.80
13553;BME280;6847;48.830;9.116;2022-10-22T08:21:06;97970.38;;;28.29;56.85
13553;BME280;6847;48.830;9.116;2022-10-22T08:23:39;97969.69;;;30.03;54.05
13553;BME280;6847;48.830;9.116;2022-10-22T08:26:09;97980.91;;;30.79;53.98
13553;BME280;6847;48.830;9.116;2022-10-22T08:28:36;97995.03;;;31.69;52.59
13553;BME280;6847;48.830;9.116;2022-10-22T08:31:04;97985.13;;;32.62;51.02
13553;BME280;6847;48.830;9.116;2022-10-22T08:33:32;97985.09;;;33.47;50.47
13553;BME280;6847;48.830;9.116;2022-10-22T08:36:00;97988.09;;;34.26;49.30
13553;BME280;6847;48.830;9.116;2022-10-22T08:38:28;97983.66;;;34.44;49.63
13553;BME280;6847;48.830;9.116;2022-10-22T08:41:07;97990.13;;;34.81;48.52
13553;BME280;6847;48.830;9.116;2022-10-22T08:43:59;97995.38;;;35.15;48.70
13553;BME280;6847;48.830;9.116;2022-10-22T08:46:41;97999.47;;;34.94;49.44
13553;BME280;6847;48.830;9.116;2022-10-22T08:49:18;97992.69;;;34.36;50.29
13553;BME280;6847;48.830;9.116;2022-10-22T08:51:56;97994.25;;;33.97;51.22
13553;BME280;6847;48.830;9.116;2022-10-22T08:54:31;97990.31;;;33.91;50.92
13553;BME280;6847;48.830;9.116;2022-10-22T08:57:12;97979.56;;;34.29;49.80
13553;BME280;6847;48.830;9.116;2022-10-22T08:59:48;97994.56;;;35.14;48.77
13553;BME280;6847;48.830;9.116;2022-10-22T09:02:36;97991.50;;;35.57;47.51
13553;BME280;6847;48.830;9.116;2022-10-22T09:05:15;98002.41;;;35.55;47.17
13553;BME280;6847;48.830;9.116;2022-10-22T09:07:47;98013.16;;;35.28;47.74
13553;BME280;6847;48.830;9.116;2022-10-22T09:10:27;97974.34;;;35.36;48.03
13553;BME280;6847;48.830;9.116;2022-10-22T09:12:56;98005.72;;;35.99;47.35
13553;BME280;6847;48.830;9.116;2022-10-22T09:15:31;98003.94;;;36.05;47.21
13553;BME280;6847;48.830;9.116;2022-10-22T09:18:10;98007.09;;;36.23;47.04
13553;BME280;6847;48.830;9.116;2022-10-22T09:20:44;98009.72;;;36.30;46.68
13553;BME280;6847;48.830;9.116;2022-10-22T09:23:23;98009.78;;;35.66;47.52
13553;BME280;6847;48.830;9.116;2022-10-22T09:25:57;98007.69;;;35.21;47.98
13553;BME280;6847;48.830;9.116;2022-10-22T09:28:32;98004.47;;;34.86;48.24
13553;BME280;6847;48.830;9.116;2022-10-22T09:30:59;98003.16;;;34.71;48.46
13553;BME280;6847;48.830;9.116;2022-10-22T09:33:29;97996.13;;;34.63;48.12
13553;BME280;6847;48.830;9.116;2022-10-22T09:35:59;98012.13;;;34.66;48.39
13553;BME280;6847;48.830;9.116;2022-10-22T09:38:32;98016.97;;;34.26;49.72
13553;BME280;6847;48.830;9.116;2022-10-22T09:41:01;98016.44;;;34.11;49.49
13553;BME280;6847;48.830;9.116;2022-10-22T09:43:30;98019.84;;;34.42;49.52
13553;BME280;6847;48.830;9.116;2022-10-22T09:45:59;98019.91;;;34.78;48.83
13553;BME280;6847;48.830;9.116;2022-10-22T09:48:28;98019.41;;;34.83;48.16
13553;BME280;6847;48.830;9.116;2022-10-22T09:51:02;98030.19;;;35.21;47.10
13553;BME280;6847;48.830;9.116;2022-10-22T09:53:35;98031.66;;;35.61;46.37
13553;BME280;6847;48.830;9.116;2022-10-22T09:56:08;98042.38;;;35.50;46.89
13553;BME280;6847;48.830;9.116;2022-10-22T09:58:44;98042.19;;;35.57;46.41
13553;BME280;6847;48.830;9.116;2022-10-22T10:01:19;98040.72;;;35.53;46.69
13553;BME280;6847;48.830;9.116;2022-10-22T10:03:47;98049.09;;;35.73;45.88
13553;BME280;6847;48.830;9.116;2022-10-22T10:06:17;98049.41;;;35.58;46.01
13553;BME280;6847;48.830;9.116;2022-10-22T10:08:47;98046.13;;;34.75;46.72
13553;BME280;6847;48.830;9.116;2022-10-22T10:11:22;98048.94;;;33.89;48.14
13553;BME280;6847;48.830;9.116;2022-10-22T10:14:05;98046.97;;;33.63;47.94
13553;BME280;6847;48.830;9.116;2022-10-22T10:16:51;98051.75;;;33.89;47.13
13553;BME280;6847;48.830;9.116;2022-10-22T10:19:35;98052.59;;;34.09;46.46
13553;BME280;6847;48.830;9.116;2022-10-22T10:22:13;98057.06;;;34.07;46.59
13553;BME280;6847;48.830;9.116;2022-10-22T10:24:57;98060.44;;;33.75;46.41
13553;BME280;6847;48.830;9.116;2022-10-22T10:27:37;98049.78;;;33.39;47.07
13553;BME280;6847;48.830;9.116;2022-10-22T10:30:12;98063.38;;;33.41;47.26
13553;BME280;6847;48.830;9.116;2022-10-22T10:33:14;98066.78;;;33.79;46.02
13553;BME280;6847;48.830;9.116;2022-10-22T10:35:52;98061.84;;;33.87;46.35
13553;BME280;6847;48.830;9.116;2022-10-22T10:38:37;98065.41;;;34.10;45.36
13553;BME280;6847;48.830;9.116;2022-10-22T10:41:17;98071.69;;;34.18;45.34
13553;BME280;6847;48.830;9.116;2022-10-22T10:44:01;98065.41;;;34.10;45.20
13553;BME280;6847;48.830;9.116;2022-10-22T10:46:35;98075.44;;;34.35;45.34
13553;BME280;6847;48.830;9.116;2022-10-22T10:49:08;98074.00;;;34.66;44.66
13553;BME280;6847;48.830;9.116;2022-10-22T10:51:49;98078.56;;;34.80;44.54
13553;BME280;6847;48.830;9.116;2022-10-22T10:54:30;98070.94;;;34.97;44.36
13553;BME280;6847;48.830;9.116;2022-10-22T10:57:10;98070.88;;;34.41;45.06
13553;BME280;6847;48.830;9.116;2022-10-22T10:59:48;98074.47;;;33.21;47.42
13553;BME280;6847;48.830;9.116;2022-10-22T11:05:38;98074.06;;;31.32;49.63
13553;BME280;6847;48.830;9.116;2022-10-22T11:08:10;98062.56;;;31.15;49.22
13553;BME280;6847;48.830;9.116;2022-10-22T11:10:40;98065.25;;;30.57;50.20
13553;BME280;6847;48.830;9.116;2022-10-22T11:13:16;98066.97;;;30.22;50.27
13553;BME280;6847;48.830;9.116;2022-10-22T11:15:50;98059.00;;;30.13;49.92
13553;BME280;6847;48.830;9.116;2022-10-22T11:18:29;98064.53;;;30.31;49.04
13553;BME280;6847;48.830;9.116;2022-10-22T11:21:07;98070.25;;;30.97;48.21
13553;BME280;6847;48.830;9.116;2022-10-22T11:23:41;98019.63;;;31.43;46.99
13553;BME280;6847;48.830;9.116;2022-10-22T11:26:14;98039.91;;;32.40;46.20
13553;BME280;6847;48.830;9.116;2022-10-22T11:28:48;98054.94;;;33.14;45.44
13553;BME280;6847;48.830;9.116;2022-10-22T11:31:22;98053.03;;;33.61;45.18
13553;BME280;6847;48.830;9.116;2022-10-22T11:33:53;98063.13;;;34.05;45.14
13553;BME280;6847;48.830;9.116;2022-10-22T11:36:25;98066.50;;;34.40;44.94
13553;BME280;6847;48.830;9.116;2022-10-22T11:39:01;98056.25;;;34.69;45.02
13553;BME280;6847;48.830;9.116;2022-10-22T11:41:31;98054.75;;;34.84;44.93
13553;BME280;6847;48.830;9.116;2022-10-22T11:44:07;98060.59;;;34.94;44.96
13553;BME280;6847;48.830;9.116;2022-10-22T11:46:44;98060.75;;;34.86;45.14
13553;BME280;6847;48.830;9.116;2022-10-22T11:49:21;98053.16;;;34.83;45.41
13553;BME280;6847;48.830;9.116;2022-10-22T11:51:48;98054.09;;;34.77;45.54
13553;BME280;6847;48.830;9.116;2022-10-22T11:57:21;98049.63;;;34.40;45.41
13553;BME280;6847;48.830;9.116;2022-10-22T11:59:51;98054.50;;;34.16;45.85
13553;BME280;6847;48.830;9.116;2022-10-22T12:02:38;98043.84;;;33.84;46.11
13553;BME280;6847;48.830;9.116;2022-10-22T12:05:32;98049.31;;;33.68;45.73
13553;BME280;6847;48.830;9.116;2022-10-22T12:08:03;98013.66;;;33.41;46.38
13553;BME280;6847;48.830;9.116;2022-10-22T12:10:34;98055.53;;;33.56;45.85
13553;BME280;6847;48.830;9.116;2022-10-22T12:13:10;98046.50;;;33.44;45.67
13553;BME280;6847;48.830;9.116;2022-10-22T12:15:46;98047.44;;;33.34;46.15
13553;BME280;6847;48.830;9.116;2022-10-22T12:18:15;98050.88;;;33.19;46.08
13553;BME280;6847;48.830;9.116;2022-10-22T12:20:48;98050.78;;;32.99;46.38
13553;BME280;6847;48.830;9.116;2022-10-22T12:23:15;98044.25;;;32.79;45.98
13553;BME280;6847;48.830;9.116;2022-10-22T12:25:43;98041.19;;;32.62;46.21
13553;BME280;6847;48.830;9.116;2022-10-22T12:28:10;98035.94;;;32.34;46.49
13553;BME280;6847;48.830;9.116;2022-10-22T12:30:37;98033.84;;;32.04;46.43
13553;BME280;6847;48.830;9.116;2022-10-22T12:33:15;98036.75;;;31.93;46.12
13553;BME280;6847;48.830;9.116;2022-10-22T12:35:45;98032.50;;;31.82;45.80
13553;BME280;6847;48.830;9.116;2022-10-22T12:38:15;98031.59;;;31.44;46.06
13553;BME280;6847;48.830;9.116;2022-10-22T12:40:43;98031.22;;;31.42;45.73
13553;BME280;6847;48.830;9.116;2022-10-22T12:43:12;98022.25;;;31.65;45.27
13553;BME280;6847;48.830;9.116;2022-10-22T12:45:40;98025.22;;;31.91;44.46
13553;BME280;6847;48.830;9.116;2022-10-22T12:48:15;98027.03;;;32.05;44.51
13553;BME280;6847;48.830;9.116;2022-10-22T12:50:49;98023.25;;;31.85;44.61
13553;BME280;6847;48.830;9.116;2022-10-22T12:53:21;98012.56;;;31.24;45.27
13553;BME280;6847;48.830;9.116;2022-10-22T12:55:52;98031.38;;;31.20;45.08
13553;BME280;6847;48.830;9.116;2022-10-22T12:58:23;98033.09;;;31.04;44.95
13553;BME280;6847;48.830;9.116;2022-10-22T13:00:53;98022.03;;;30.79;45.26
13553;BME280;6847;48.830;9.116;2022-10-22T13:03:26;98019.75;;;30.60;45.03
13553;BME280;6847;48.830;9.116;2022-10-22T13:05:56;98021.88;;;30.20;45.46
13553;BME280;6847;48.830;9.116;2022-10-22T13:08:37;97966.53;;;29.69;45.60
13553;BME280;6847;48.830;9.116;2022-10-22T13:11:07;98019.91;;;30.13;44.97
13553;BME280;6847;48.830;9.116;2022-10-22T13:13:41;98019.75;;;30.56;44.35
13553;BME280;6847;48.830;9.116;2022-10-22T13:16:21;98017.88;;;31.12;44.19
13553;BME280;6847;48.830;9.116;2022-10-22T13:18:51;98013.56;;;31.52;43.43
13553;BME280;6847;48.830;9.116;2022-10-22T13:21:28;98014.44;;;31.86;43.00
13553;BME280;6847;48.830;9.116;2022-10-22T13:23:57;98005.72;;;32.18;42.92
13553;BME280;6847;48.830;9.116;2022-10-22T13:26:30;97979.03;;;32.41;42.70
13553;BME280;6847;48.830;9.116;2022-10-22T13:28:58;98017.75;;;33.10;42.29
13553;BME280;6847;48.830;9.116;2022-10-22T13:31:29;98008.03;;;33.41;42.23
13553;BME280;6847;48.830;9.116;2022-10-22T13:34:01;98002.53;;;33.34;42.02
13553;BME280;6847;48.830;9.116;2022-10-22T13:36:36;98008.03;;;33.41;42.18
13553;BME280;6847;48.830;9.116;2022-10-22T13:39:04;98007.75;;;33.59;42.04